Time;durP1;ratioP1;P1;durP2;ratioP2;P2;SDS_P1;SDS_P2;PMS_P1;PMS_P2;Temp;Humidity;BMP_temperature;BMP_pressure;BME280_temperature;BME280_humidity;BME280_pressure;Samples;Min_cycle;Max_cycle;Signal;HPM_P1;HPM_P2
2021/01/21 00:02:56;;;;;;;14.63;7.50;;;-2.40;99.90;;;;;;6213622;28;20212;-78
2021/01/21 00:05:58;;;;;;;13.07;8.30;;;-2.40;99.90;;;;;;6207931;28;20225;-78
2021/01/21 00:09:01;;;;;;;12.60;8.00;;;-2.40;99.90;;;;;;6208785;28;20215;-78
2021/01/21 00:12:03;;;;;;;13.67;7.37;;;-2.40;99.90;;;;;;6207595;28;20220;-78
2021/01/21 00:15:05;;;;;;;13.97;7.77;;;-2.50;99.90;;;;;;6209148;28;20243;-78
2021/01/21 00:18:07;;;;;;;15.07;8.33;;;-2.50;99.90;;;;;;6204596;28;20727;-78
2021/01/21 00:21:09;;;;;;;12.73;8.03;;;-2.50;99.90;;;;;;6184142;28;20217;-78
2021/01/21 00:24:11;;;;;;;13.10;7.90;;;-2.50;99.90;;;;;;6183739;28;20284;-78
2021/01/21 00:27:13;;;;;;;12.40;7.70;;;-2.50;99.90;;;;;;6184118;28;20351;-78
2021/01/21 00:30:15;;;;;;;11.37;8.00;;;-2.50;99.90;;;;;;6184081;28;20578;-78
2021/01/21 00:33:17;;;;;;;11.17;7.77;;;-2.60;99.90;;;;;;6184892;28;20209;-78
2021/01/21 00:36:24;;;;;;;11.70;7.93;;;-2.50;99.90;;;;;;6205437;28;20228;-78
2021/01/21 00:39:26;;;;;;;14.37;8.47;;;-2.60;99.90;;;;;;6192474;28;20225;-78
2021/01/21 00:42:28;;;;;;;12.50;7.60;;;-2.60;99.90;;;;;;6209269;28;20211;-79
2021/01/21 00:45:30;;;;;;;13.67;8.60;;;-2.60;99.90;;;;;;6208699;28;20270;-78
2021/01/21 00:48:32;;;;;;;13.40;8.43;;;-2.60;99.90;;;;;;6208899;28;20730;-78
2021/01/21 00:51:34;;;;;;;16.97;7.83;;;-2.70;99.90;;;;;;6209203;28;20578;-78
2021/01/21 00:54:36;;;;;;;11.93;8.37;;;-2.60;99.90;;;;;;6212538;28;20573;-78
2021/01/21 00:57:39;;;;;;;12.03;9.00;;;-2.60;99.90;;;;;;6210769;28;20196;-78
2021/01/21 01:00:40;;;;;;;17.60;8.53;;;-2.60;99.90;;;;;;6209854;28;20204;-78
2021/01/21 01:03:43;;;;;;;14.23;8.93;;;-2.60;99.90;;;;;;6210370;28;20208;-78
2021/01/21 01:06:45;;;;;;;13.40;8.37;;;-2.60;99.90;;;;;;6210413;28;20232;-78
2021/01/21 01:09:46;;;;;;;14.80;9.23;;;-2.60;99.90;;;;;;6211355;28;20700;-78
2021/01/21 01:12:52;;;;;;;17.30;9.00;;;-2.50;99.90;;;;;;6210508;28;20707;-79
2021/01/21 01:15:54;;;;;;;13.33;7.93;;;-2.50;99.90;;;;;;6186744;28;20548;-78
2021/01/21 01:19:01;;;;;;;11.63;8.00;;;-2.50;99.90;;;;;;6185661;28;20268;-78
2021/01/21 01:22:03;;;;;;;13.30;7.33;;;-2.50;99.90;;;;;;6197711;28;20312;-79
2021/01/21 01:25:06;;;;;;;12.97;7.07;;;-2.50;99.90;;;;;;6186259;28;20221;-78
2021/01/21 01:28:08;;;;;;;14.20;8.87;;;-2.50;99.90;;;;;;6191497;28;20224;-78
2021/01/21 01:31:10;;;;;;;13.07;9.47;;;-2.50;99.90;;;;;;6200577;28;20551;-78
2021/01/21 01:34:14;;;;;;;13.70;8.37;;;-2.50;99.90;;;;;;6185850;28;20796;-78
2021/01/21 01:37:34;;;;;;;13.90;8.93;;;-2.40;99.90;;;;;;6181988;28;20498;-78
2021/01/21 01:40:44;;;;;;;14.90;9.13;;;-2.40;99.90;;;;;;6181520;28;20548;-77
2021/01/21 01:43:49;;;;;;;16.03;8.97;;;-2.40;99.90;;;;;;6182211;28;20530;-78
2021/01/21 01:46:53;;;;;;;13.30;8.30;;;-2.40;99.90;;;;;;6180581;28;20237;-77
2021/01/21 01:49:57;;;;;;;14.60;8.87;;;-2.50;99.90;;;;;;6197734;28;20225;-78
2021/01/21 01:53:00;;;;;;;13.37;9.00;;;-2.50;99.90;;;;;;6207050;28;20561;-78
2021/01/21 01:56:04;;;;;;;13.13;8.73;;;-2.50;99.90;;;;;;6205468;28;20214;-78
2021/01/21 01:59:12;;;;;;;15.67;8.77;;;-2.50;99.90;;;;;;6205166;28;20213;-79
2021/01/21 02:02:26;;;;;;;14.87;8.67;;;-2.50;99.90;;;;;;6209699;28;20224;-78
2021/01/21 02:05:35;;;;;;;13.47;8.00;;;-2.50;99.90;;;;;;6212599;28;20368;-78
2021/01/21 02:08:37;;;;;;;13.43;8.67;;;-2.50;99.90;;;;;;6211649;28;20200;-78
2021/01/21 02:11:38;;;;;;;11.03;7.67;;;-2.60;99.90;;;;;;6212497;28;20698;-78
2021/01/21 02:15:24;;;;;;;11.20;7.37;;;-2.60;99.90;;;;;;6204292;28;20216;-78
2021/01/21 02:18:48;;;;;;;15.57;8.93;;;-2.70;99.90;;;;;;6150785;28;20738;-78
2021/01/21 02:21:50;;;;;;;14.67;8.67;;;-2.70;99.90;;;;;;6211011;28;20224;-78
2021/01/21 02:25:04;;;;;;;12.97;8.33;;;-2.70;99.90;;;;;;6213452;28;20634;-78
2021/01/21 02:28:10;;;;;;;11.80;8.10;;;-2.70;99.90;;;;;;6212648;28;20275;-78
2021/01/21 02:31:30;;;;;;;14.57;7.73;;;-2.70;99.90;;;;;;6195802;28;20208;-77
2021/01/21 02:35:15;;;;;;;12.27;8.37;;;-2.70;99.90;;;;;;6211040;28;20197;-78
2021/01/21 02:38:21;;;;;;;12.63;7.73;;;-2.70;99.90;;;;;;6137955;29;20207;-78
2021/01/21 02:41:25;;;;;;;11.57;7.90;;;-2.80;99.90;;;;;;6122490;29;20211;-78
2021/01/21 02:44:29;;;;;;;14.83;8.00;;;-2.80;99.90;;;;;;6122765;29;20341;-78
2021/01/21 02:47:32;;;;;;;11.27;7.63;;;-2.80;99.90;;;;;;6122829;29;20226;-78
2021/01/21 02:50:37;;;;;;;12.33;7.97;;;-2.80;99.90;;;;;;6137177;29;20229;-78
2021/01/21 02:53:42;;;;;;;10.60;6.80;;;-2.80;99.90;;;;;;6122690;29;20234;-79
2021/01/21 02:56:49;;;;;;;11.00;7.13;;;-2.80;99.90;;;;;;6122451;29;20207;-79
2021/01/21 02:59:55;;;;;;;10.43;6.93;;;-2.80;99.90;;;;;;6123548;29;20327;-78
2021/01/21 03:03:00;;;;;;;11.23;7.23;;;-2.80;99.90;;;;;;6120027;29;20202;-78
2021/01/21 03:06:06;;;;;;;12.77;7.50;;;-2.90;99.90;;;;;;6103475;29;20330;-78
2021/01/21 03:09:11;;;;;;;10.23;6.43;;;-2.90;99.90;;;;;;6114473;29;20665;-76
2021/01/21 03:12:24;;;;;;;11.43;7.80;;;-2.90;99.90;;;;;;6155472;28;20212;-76
2021/01/21 03:15:30;;;;;;;11.37;6.97;;;-2.90;99.90;;;;;;6195000;28;20217;-76
2021/01/21 03:18:39;;;;;;;13.50;8.77;;;-2.90;99.90;;;;;;6177448;28;20663;-76
2021/01/21 03:21:43;;;;;;;13.43;8.17;;;-3.00;99.90;;;;;;6194036;28;20718;-76
2021/01/21 03:24:52;;;;;;;12.20;8.20;;;-3.00;99.90;;;;;;6179083;28;20213;-76
2021/01/21 03:28:03;;;;;;;16.37;8.27;;;-3.00;99.90;;;;;;6177103;28;20284;-77
2021/01/21 03:31:08;;;;;;;14.57;8.20;;;-3.00;99.90;;;;;;6177466;28;20232;-76
2021/01/21 03:34:12;;;;;;;15.63;9.40;;;-3.00;99.90;;;;;;6177636;28;20202;-76
2021/01/21 03:37:20;;;;;;;14.70;8.03;;;-3.00;99.90;;;;;;6178236;28;20197;-76
2021/01/21 03:40:24;;;;;;;13.57;9.03;;;-3.00;99.90;;;;;;6193613;28;20367;-76
2021/01/21 03:43:31;;;;;;;13.60;9.20;;;-3.00;99.90;;;;;;6193904;28;20296;-76
2021/01/21 03:46:54;;;;;;;17.73;9.23;;;-3.00;99.90;;;;;;6179408;28;20241;-76
2021/01/21 03:50:13;;;;;;;13.67;9.37;;;-2.90;99.90;;;;;;6188834;28;20218;-76
2021/01/21 03:53:16;;;;;;;14.53;8.93;;;-3.00;99.90;;;;;;6185014;28;20209;-78
2021/01/21 03:56:32;;;;;;;15.27;9.97;;;-3.00;99.90;;;;;;6185190;28;20232;-78
2021/01/21 03:59:34;;;;;;;14.13;8.17;;;-3.00;99.90;;;;;;6185143;28;20220;-78
2021/01/21 04:02:36;;;;;;;12.60;8.53;;;-3.00;99.90;;;;;;6184747;28;20208;-78
2021/01/21 04:05:56;;;;;;;13.47;8.33;;;-3.10;99.90;;;;;;6187943;28;20249;-78
2021/01/21 04:09:00;;;;;;;14.57;8.67;;;-3.10;99.90;;;;;;6185601;28;20650;-78
2021/01/21 04:12:21;;;;;;;17.87;10.00;;;-3.10;99.90;;;;;;6179595;28;20756;-78
2021/01/21 04:15:23;;;;;;;21.00;9.67;;;-3.20;99.90;;;;;;6196975;28;20197;-78
2021/01/21 04:18:25;;;;;;;15.90;9.47;;;-3.20;99.90;;;;;;6190920;28;20203;-78
2021/01/21 04:21:37;;;;;;;16.80;9.07;;;-3.20;99.90;;;;;;6212112;28;20419;-77
2021/01/21 04:24:50;;;;;;;15.17;8.60;;;-3.20;99.90;;;;;;6212506;28;20767;-78
2021/01/21 04:28:03;;;;;;;14.27;9.13;;;-3.20;99.90;;;;;;6212776;28;20220;-78
2021/01/21 04:31:06;;;;;;;14.17;8.50;;;-3.30;99.90;;;;;;6211911;28;20963;-78
2021/01/21 04:34:08;;;;;;;14.67;9.60;;;-3.30;99.90;;;;;;6205680;28;20211;-78
2021/01/21 04:37:10;;;;;;;15.00;10.40;;;-3.30;99.90;;;;;;6207667;28;20200;-77
2021/01/21 04:40:37;;;;;;;16.80;10.50;;;-3.30;99.90;;;;;;6201443;28;20204;-78
2021/01/21 04:43:58;;;;;;;17.30;10.30;;;-3.40;99.90;;;;;;6201792;28;20582;-78
2021/01/21 04:47:28;;;;;;;18.43;10.47;;;-3.40;99.90;;;;;;6200667;28;20232;-78
2021/01/21 04:50:54;;;;;;;22.63;12.07;;;-3.40;99.90;;;;;;6191348;28;20221;-78
2021/01/21 04:54:07;;;;;;;16.07;10.57;;;-3.40;99.90;;;;;;6202966;28;20224;-78
2021/01/21 04:57:55;;;;;;;19.13;10.67;;;-3.50;99.90;;;;;;6203779;28;20197;-78
2021/01/21 05:00:59;;;;;;;24.70;11.67;;;-3.50;99.90;;;;;;6200667;28;20675;-78
2021/01/21 05:04:04;;;;;;;20.40;12.03;;;-3.50;99.90;;;;;;6202174;28;20243;-78
2021/01/21 05:07:20;;;;;;;21.33;12.83;;;-3.50;99.90;;;;;;6206039;28;20233;-78
2021/01/21 05:10:23;;;;;;;22.67;12.97;;;-3.50;99.90;;;;;;6207743;28;20250;-78
2021/01/21 05:13:25;;;;;;;21.53;12.80;;;-3.50;99.90;;;;;;6204603;28;20300;-78
2021/01/21 05:16:53;;;;;;;21.10;13.17;;;-3.50;99.90;;;;;;6184569;28;20209;-78
2021/01/21 05:20:25;;;;;;;25.07;14.23;;;-3.50;99.90;;;;;;6193803;28;20540;-78
2021/01/21 05:23:59;;;;;;;21.20;12.93;;;-3.50;99.90;;;;;;6209121;28;20244;-77
2021/01/21 05:27:21;;;;;;;22.07;12.80;;;-3.50;99.90;;;;;;6222203;28;20725;-77
2021/01/21 05:30:36;;;;;;;21.70;12.93;;;-3.50;99.90;;;;;;6197542;28;20225;-77
2021/01/21 05:33:39;;;;;;;24.93;14.63;;;-3.60;99.90;;;;;;6184366;28;20201;-78
2021/01/21 05:36:50;;;;;;;25.43;14.63;;;-3.50;99.90;;;;;;6184266;28;20273;-78
2021/01/21 05:39:57;;;;;;;20.87;13.47;;;-3.50;99.90;;;;;;6183725;28;20304;-78
2021/01/21 05:43:23;;;;;;;20.33;13.53;;;-3.50;99.90;;;;;;6186299;28;20213;-78
2021/01/21 05:46:36;;;;;;;28.07;15.33;;;-3.60;99.90;;;;;;6170087;28;20281;-78
2021/01/21 05:49:38;;;;;;;25.63;14.87;;;-3.60;99.90;;;;;;6185193;28;20244;-78
2021/01/21 05:52:46;;;;;;;26.03;14.90;;;-3.60;99.90;;;;;;6209520;28;20571;-77
2021/01/21 05:55:50;;;;;;;27.03;15.67;;;-3.60;99.90;;;;;;6210803;28;20204;-78
2021/01/21 05:58:54;;;;;;;28.80;16.27;;;-3.50;99.90;;;;;;6190682;28;20224;-77
2021/01/21 06:02:00;;;;;;;26.70;16.03;;;-3.50;99.90;;;;;;6167965;28;20214;-78
2021/01/21 06:05:08;;;;;;;28.40;15.97;;;-3.40;99.90;;;;;;6181643;28;20217;-77
2021/01/21 06:08:11;;;;;;;25.77;15.40;;;-3.40;99.90;;;;;;6168674;28;20280;-78
2021/01/21 06:11:13;;;;;;;29.03;15.20;;;-3.40;99.90;;;;;;6185343;28;20224;-77
2021/01/21 06:14:14;;;;;;;25.13;14.83;;;-3.40;99.90;;;;;;6185772;28;20264;-78
2021/01/21 06:17:16;;;;;;;24.80;14.60;;;-3.40;99.90;;;;;;6187105;28;20565;-78
2021/01/21 06:20:38;;;;;;;23.43;13.07;;;-3.40;99.90;;;;;;6209609;28;20263;-78
2021/01/21 06:24:06;;;;;;;23.87;13.57;;;-3.40;99.90;;;;;;6211787;28;20257;-78
2021/01/21 06:27:22;;;;;;;22.30;13.60;;;-3.50;99.90;;;;;;6195398;28;20310;-78
2021/01/21 06:30:25;;;;;;;19.20;12.87;;;-3.50;99.90;;;;;;6204613;28;20709;-78
2021/01/21 06:33:40;;;;;;;18.60;12.13;;;-3.50;99.90;;;;;;6187176;28;20208;-78
2021/01/21 06:36:46;;;;;;;19.87;12.73;;;-3.50;99.90;;;;;;6187802;28;20229;-78
2021/01/21 06:39:56;;;;;;;21.53;12.47;;;-3.50;99.90;;;;;;6186319;28;20219;-79
2021/01/21 06:43:12;;;;;;;23.20;13.40;;;-3.60;99.90;;;;;;6189127;28;20748;-78
2021/01/21 06:46:15;;;;;;;24.33;14.80;;;-3.60;99.90;;;;;;6201358;28;20676;-78
2021/01/21 06:49:18;;;;;;;26.97;14.40;;;-3.50;99.90;;;;;;6199009;28;20749;-78
2021/01/21 06:52:20;;;;;;;22.87;13.30;;;-3.50;99.90;;;;;;6187017;28;20273;-78
2021/01/21 06:55:22;;;;;;;26.47;15.33;;;-3.40;99.90;;;;;;6186859;28;20292;-78
2021/01/21 06:58:46;;;;;;;21.97;13.10;;;-3.40;99.90;;;;;;6187826;28;20273;-78
2021/01/21 07:01:49;;;;;;;25.10;13.67;;;-3.40;99.90;;;;;;6187032;28;20235;-78
2021/01/21 07:05:07;;;;;;;22.03;12.57;;;-3.40;99.90;;;;;;6189194;28;20216;-78
2021/01/21 07:08:09;;;;;;;20.40;12.67;;;-3.40;99.90;;;;;;6187202;28;20206;-78
2021/01/21 07:11:12;;;;;;;22.93;12.37;;;-3.40;99.90;;;;;;6188245;28;20541;-78
2021/01/21 07:14:18;;;;;;;22.27;13.67;;;-3.30;99.90;;;;;;6199752;28;20236;-78
2021/01/21 07:17:29;;;;;;;18.30;11.13;;;-3.30;99.90;;;;;;6213043;28;20259;-78
2021/01/21 07:20:35;;;;;;;20.77;12.93;;;-3.20;99.90;;;;;;6190191;28;20229;-78
2021/01/21 07:23:45;;;;;;;21.83;13.53;;;-3.10;99.90;;;;;;6189143;28;20197;-78
2021/01/21 07:26:52;;;;;;;19.67;12.83;;;-3.10;99.90;;;;;;6189276;28;20237;-78
2021/01/21 07:30:13;;;;;;;24.37;12.73;;;-3.00;99.90;;;;;;6187146;28;20552;-78
2021/01/21 07:33:26;;;;;;;19.03;12.40;;;-2.90;99.90;;;;;;6184552;28;20205;-78
2021/01/21 07:36:29;;;;;;;23.33;12.77;;;-2.90;99.90;;;;;;6167576;28;20692;-78
2021/01/21 07:40:04;;;;;;;21.30;14.10;;;-2.80;99.90;;;;;;6193122;28;20209;-78
2021/01/21 07:43:06;;;;;;;23.13;13.00;;;-2.70;99.90;;;;;;6184293;28;20202;-78
2021/01/21 07:46:24;;;;;;;18.97;12.17;;;-2.60;99.90;;;;;;6200397;28;20238;-78
2021/01/21 07:49:32;;;;;;;21.70;13.80;;;-2.50;99.90;;;;;;6199952;28;20281;-78
2021/01/21 07:52:42;;;;;;;27.73;14.83;;;-2.50;99.90;;;;;;6203894;28;20239;-78
2021/01/21 07:55:44;;;;;;;21.10;12.73;;;-2.50;99.90;;;;;;6202289;28;20279;-78
2021/01/21 07:58:46;;;;;;;24.83;16.13;;;-2.40;99.90;;;;;;6202477;28;20200;-78
2021/01/21 08:02:00;;;;;;;26.60;16.13;;;-2.30;99.90;;;;;;6186086;28;20710;-78
2021/01/21 08:05:02;;;;;;;20.53;13.53;;;-2.20;99.90;;;;;;6201661;28;20201;-78
2021/01/21 08:08:04;;;;;;;28.40;16.87;;;-2.10;99.90;;;;;;6201374;28;20228;-78
2021/01/21 08:11:08;;;;;;;25.90;16.07;;;-2.00;99.90;;;;;;6201640;28;20208;-78
2021/01/21 08:14:10;;;;;;;26.80;16.17;;;-2.00;99.90;;;;;;6194162;28;20244;-78
2021/01/21 08:17:12;;;;;;;24.73;15.67;;;-1.90;99.90;;;;;;6202370;28;20828;-78
2021/01/21 08:20:15;;;;;;;24.47;15.77;;;-1.80;99.90;;;;;;6189633;28;20658;-78
2021/01/21 08:23:17;;;;;;;25.20;14.87;;;-1.80;99.90;;;;;;6209989;28;20295;-78
2021/01/21 08:26:18;;;;;;;24.60;14.97;;;-1.70;99.90;;;;;;6210578;28;20236;-78
2021/01/21 08:29:20;;;;;;;22.47;14.37;;;-1.60;99.90;;;;;;6210980;28;20295;-78
2021/01/21 08:32:22;;;;;;;22.63;14.23;;;-1.50;99.90;;;;;;6211387;28;20203;-78
2021/01/21 08:35:27;;;;;;;24.03;14.53;;;-1.40;99.90;;;;;;6211133;28;20204;-78
2021/01/21 08:38:36;;;;;;;21.50;14.73;;;-1.30;99.90;;;;;;6212639;28;20204;-78
2021/01/21 08:41:40;;;;;;;23.37;14.17;;;-1.20;99.90;;;;;;6210393;28;20209;-78
2021/01/21 08:44:41;;;;;;;20.73;13.43;;;-1.00;99.90;;;;;;6209974;28;20208;-78
2021/01/21 08:47:48;;;;;;;21.53;14.60;;;-0.90;99.90;;;;;;6211673;28;20229;-78
2021/01/21 08:50:50;;;;;;;24.37;14.93;;;-0.70;99.90;;;;;;6203961;28;20675;-78
2021/01/21 08:53:52;;;;;;;31.17;18.47;;;-0.60;99.90;;;;;;6189136;28;20531;-78
2021/01/21 08:57:14;;;;;;;28.30;17.07;;;-0.40;99.90;;;;;;6206051;28;20213;-78
2021/01/21 09:00:16;;;;;;;31.37;18.10;;;-0.20;99.90;;;;;;6182929;28;20694;-78
2021/01/21 09:03:38;;;;;;;24.00;16.93;;;-0.10;99.90;;;;;;6182701;28;20421;-78
2021/01/21 09:06:42;;;;;;;25.67;17.00;;;0.10;99.90;;;;;;6182130;28;20233;-79
2021/01/21 09:09:51;;;;;;;28.13;15.83;;;0.30;99.90;;;;;;6184026;28;20256;-78
2021/01/21 09:13:00;;;;;;;27.83;17.70;;;0.50;99.90;;;;;;6185777;28;20208;-78
2021/01/21 09:16:05;;;;;;;23.60;15.93;;;0.70;99.90;;;;;;6169631;28;20694;-79
2021/01/21 09:19:14;;;;;;;23.93;16.33;;;1.00;99.90;;;;;;6198723;28;20247;-79
2021/01/21 09:22:17;;;;;;;26.33;18.70;;;1.20;99.90;;;;;;6213669;28;20205;-78
2021/01/21 09:25:25;;;;;;;22.60;16.00;;;1.50;99.90;;;;;;6216843;28;20287;-78
2021/01/21 09:28:27;;;;;;;25.60;17.47;;;1.50;99.90;;;;;;6211407;28;20266;-79
2021/01/21 09:31:30;;;;;;;25.70;16.60;;;1.70;99.90;;;;;;6203823;28;20287;-79
2021/01/21 09:34:32;;;;;;;28.77;17.57;;;1.70;99.90;;;;;;6188256;28;20213;-79
2021/01/21 09:37:37;;;;;;;24.50;17.23;;;1.70;99.90;;;;;;6187884;28;20474;-79
2021/01/21 09:40:38;;;;;;;24.07;16.97;;;1.80;99.90;;;;;;6190377;28;20197;-79
2021/01/21 09:43:41;;;;;;;21.33;15.97;;;1.90;99.90;;;;;;6177024;28;20207;-79
2021/01/21 09:46:55;;;;;;;24.30;16.70;;;2.00;99.90;;;;;;6194858;28;20260;-79
2021/01/21 09:49:57;;;;;;;24.47;16.40;;;2.10;99.90;;;;;;6204415;28;20251;-79
2021/01/21 09:53:00;;;;;;;23.07;15.97;;;2.20;99.90;;;;;;6211172;28;20216;-79
2021/01/21 09:56:02;;;;;;;21.27;15.57;;;2.20;99.90;;;;;;6179582;28;20213;-79
2021/01/21 09:59:04;;;;;;;21.33;15.73;;;2.30;99.90;;;;;;6211680;28;20241;-79
2021/01/21 10:02:06;;;;;;;21.90;16.27;;;2.40;99.90;;;;;;6196709;28;20201;-79
2021/01/21 10:05:09;;;;;;;25.40;17.23;;;2.50;99.90;;;;;;6196252;28;20743;-79
2021/01/21 10:08:12;;;;;;;25.03;16.17;;;2.60;99.90;;;;;;6196458;28;20228;-79
2021/01/21 10:11:14;;;;;;;23.00;15.80;;;2.60;99.90;;;;;;6197637;28;20213;-79
2021/01/21 10:14:16;;;;;;;21.67;15.73;;;2.60;99.90;;;;;;6199232;28;20213;-79
2021/01/21 10:17:18;;;;;;;26.17;15.63;;;2.70;99.90;;;;;;6196958;28;20248;-79
2021/01/21 10:20:20;;;;;;;23.97;15.17;;;2.80;99.90;;;;;;6211146;28;20256;-79
2021/01/21 10:23:21;;;;;;;22.20;16.00;;;2.90;99.90;;;;;;6216394;28;20201;-79
2021/01/21 10:26:23;;;;;;;18.80;14.43;;;3.00;99.90;;;;;;6184569;28;20251;-79
2021/01/21 10:29:25;;;;;;;22.80;15.53;;;3.10;99.90;;;;;;6208398;28;20209;-79
2021/01/21 10:32:27;;;;;;;22.97;15.77;;;3.20;99.90;;;;;;6197757;28;20236;-79
2021/01/21 10:35:29;;;;;;;21.83;14.87;;;3.40;99.90;;;;;;6172583;28;20818;-79
2021/01/21 10:38:31;;;;;;;19.83;14.87;;;3.60;99.90;;;;;;6174624;28;20205;-79
2021/01/21 10:41:33;;;;;;;25.00;15.23;;;3.80;99.90;;;;;;6191146;28;20209;-79
2021/01/21 10:44:35;;;;;;;20.03;14.27;;;4.10;99.90;;;;;;6190813;28;20205;-79
2021/01/21 10:47:37;;;;;;;23.50;15.37;;;4.30;99.90;;;;;;6189577;28;20622;-79
2021/01/21 10:50:39;;;;;;;18.73;13.83;;;4.40;99.90;;;;;;6214744;28;20299;-79
2021/01/21 10:53:41;;;;;;;22.97;14.90;;;4.60;99.90;;;;;;6214977;28;20218;-79
2021/01/21 10:56:43;;;;;;;22.17;14.00;;;4.70;99.90;;;;;;6214545;28;20212;-79
2021/01/21 10:59:44;;;;;;;23.00;15.67;;;4.70;99.90;;;;;;6215884;28;20204;-79
2021/01/21 11:02:47;;;;;;;23.97;15.63;;;4.70;99.90;;;;;;6216333;28;20215;-79
2021/01/21 11:05:49;;;;;;;24.17;16.33;;;4.70;99.90;;;;;;6214636;28;20690;-79
2021/01/21 11:08:50;;;;;;;28.43;19.20;;;4.60;99.90;;;;;;6217041;28;20841;-79
2021/01/21 11:11:52;;;;;;;24.90;19.00;;;4.60;99.90;;;;;;6215758;28;20216;-79
2021/01/21 11:14:54;;;;;;;24.67;17.87;;;4.50;99.90;;;;;;6211159;28;20218;-79
2021/01/21 11:17:57;;;;;;;24.77;18.43;;;4.50;99.90;;;;;;6179654;28;20244;-79
2021/01/21 11:20:59;;;;;;;26.33;18.57;;;4.40;99.90;;;;;;6178774;28;20217;-79
2021/01/21 11:24:01;;;;;;;24.23;18.77;;;4.30;99.90;;;;;;6178868;28;20247;-79
2021/01/21 11:27:03;;;;;;;26.63;18.20;;;4.30;99.90;;;;;;6178132;28;20245;-79
2021/01/21 11:30:07;;;;;;;25.17;17.53;;;4.40;99.90;;;;;;6179484;28;20229;-79
2021/01/21 11:33:09;;;;;;;27.17;18.07;;;4.40;99.90;;;;;;6193037;28;20263;-79
2021/01/21 11:36:11;;;;;;;21.93;16.80;;;4.50;99.90;;;;;;6194639;28;20232;-79
2021/01/21 11:39:13;;;;;;;22.27;16.57;;;4.50;99.90;;;;;;6195390;28;20204;-79
2021/01/21 11:42:15;;;;;;;23.53;17.70;;;4.60;99.90;;;;;;6193889;28;20268;-79
2021/01/21 11:45:17;;;;;;;21.53;16.07;;;4.60;99.90;;;;;;6193765;28;20221;-79
2021/01/21 11:48:19;;;;;;;22.57;16.97;;;4.80;99.90;;;;;;6198865;28;20295;-79
2021/01/21 11:51:21;;;;;;;22.97;16.43;;;5.00;99.90;;;;;;6220556;28;20213;-79
2021/01/21 11:54:22;;;;;;;21.60;17.23;;;5.00;99.90;;;;;;6222353;28;20216;-79
2021/01/21 11:57:24;;;;;;;27.27;18.20;;;5.10;99.90;;;;;;6218159;28;20682;-78
2021/01/21 12:00:35;;;;;;;23.67;17.43;;;5.20;99.90;;;;;;6205316;28;20476;-78
2021/01/21 12:03:37;;;;;;;23.20;16.07;;;5.20;99.90;;;;;;6202455;28;20205;-78
2021/01/21 12:06:40;;;;;;;25.47;17.07;;;5.40;99.90;;;;;;6210009;28;20237;-79
2021/01/21 12:09:44;;;;;;;21.80;16.40;;;5.60;99.90;;;;;;6211884;28;20219;-79
2021/01/21 12:12:47;;;;;;;23.67;16.17;;;5.70;99.90;;;;;;6213180;28;20250;-79
2021/01/21 12:15:49;;;;;;;22.77;16.40;;;5.80;99.90;;;;;;6187450;28;20217;-79
2021/01/21 12:18:50;;;;;;;27.47;17.67;;;5.80;99.90;;;;;;6187698;28;20260;-79
2021/01/21 12:21:52;;;;;;;24.83;18.37;;;5.80;99.90;;;;;;6185867;28;20258;-79
2021/01/21 12:24:54;;;;;;;29.67;19.50;;;5.70;99.90;;;;;;6203174;28;20214;-79
2021/01/21 12:27:56;;;;;;;27.53;18.40;;;5.70;99.90;;;;;;6206035;28;20250;-79
2021/01/21 12:30:58;;;;;;;25.70;17.67;;;5.90;99.90;;;;;;6195318;28;20212;-79
2021/01/21 12:34:00;;;;;;;27.20;18.40;;;6.10;99.90;;;;;;6211971;28;20210;-79
2021/01/21 12:37:02;;;;;;;25.73;18.63;;;6.40;99.90;;;;;;6211838;28;20202;-79
2021/01/21 12:40:05;;;;;;;30.47;19.63;;;6.70;99.90;;;;;;6195893;28;20708;-79
2021/01/21 12:43:07;;;;;;;23.30;17.27;;;7.00;99.90;;;;;;6213282;28;20241;-79
2021/01/21 12:46:09;;;;;;;25.10;17.13;;;7.10;99.90;;;;;;6213094;28;20218;-79
2021/01/21 12:49:11;;;;;;;24.30;17.33;;;7.10;99.90;;;;;;6202812;28;20296;-79
2021/01/21 12:52:13;;;;;;;25.07;17.60;;;7.00;99.90;;;;;;6189082;28;20229;-79
2021/01/21 12:55:16;;;;;;;23.60;17.67;;;6.90;99.90;;;;;;6191098;28;20254;-79
2021/01/21 12:58:17;;;;;;;26.23;18.63;;;6.80;99.90;;;;;;6190208;28;20205;-79
2021/01/21 13:01:19;;;;;;;25.47;18.63;;;6.60;99.90;;;;;;6193722;28;20724;-79
2021/01/21 13:04:22;;;;;;;26.83;19.33;;;6.40;99.90;;;;;;6189243;28;20200;-79
2021/01/21 13:07:23;;;;;;;23.83;17.73;;;6.30;99.90;;;;;;6190589;28;20542;-79
2021/01/21 13:10:25;;;;;;;24.93;18.50;;;6.20;99.90;;;;;;6190175;28;20367;-79
2021/01/21 13:13:28;;;;;;;25.23;18.73;;;6.10;99.90;;;;;;6194910;28;20214;-79
2021/01/21 13:16:30;;;;;;;27.13;18.57;;;6.20;99.90;;;;;;6203260;28;20569;-79
2021/01/21 13:19:34;;;;;;;25.43;17.63;;;6.50;99.90;;;;;;6220973;28;20244;-79
2021/01/21 13:22:36;;;;;;;24.67;16.97;;;7.10;99.90;;;;;;6221213;28;20199;-80
2021/01/21 13:25:37;;;;;;;23.63;17.13;;;7.30;99.90;;;;;;6224491;28;20207;-79
2021/01/21 13:28:40;;;;;;;22.70;16.70;;;7.30;99.90;;;;;;6215801;28;20720;-79
2021/01/21 13:31:42;;;;;;;28.03;18.30;;;7.20;99.90;;;;;;6207498;28;20705;-80
2021/01/21 13:34:44;;;;;;;25.27;19.23;;;7.10;99.90;;;;;;6190082;28;20574;-80
2021/01/21 13:37:46;;;;;;;25.03;16.67;;;6.90;99.90;;;;;;6191535;28;20290;-80
2021/01/21 13:40:48;;;;;;;30.33;18.30;;;6.70;99.90;;;;;;6189953;28;20200;-79
2021/01/21 13:43:51;;;;;;;25.30;20.13;;;6.50;99.90;;;;;;6190057;28;20234;-80
2021/01/21 13:46:53;;;;;;;32.83;20.97;;;6.40;99.90;;;;;;6182768;28;20726;-79
2021/01/21 13:49:56;;;;;;;30.77;21.50;;;6.20;99.90;;;;;;6191641;28;20228;-79
2021/01/21 13:52:58;;;;;;;34.20;23.13;;;6.10;99.90;;;;;;6181603;28;20210;-79
2021/01/21 13:56:03;;;;;;;40.83;24.80;;;6.00;99.90;;;;;;6181672;28;20528;-79
2021/01/21 13:59:06;;;;;;;34.60;23.33;;;5.90;99.90;;;;;;6191391;28;20596;-79
2021/01/21 14:02:08;;;;;;;40.33;23.80;;;5.90;99.90;;;;;;6190650;28;20278;-79
2021/01/21 14:05:11;;;;;;;36.37;24.40;;;5.90;99.90;;;;;;6174801;28;20218;-79
2021/01/21 14:08:14;;;;;;;41.37;25.73;;;5.80;99.90;;;;;;6174460;28;20245;-79
2021/01/21 14:11:16;;;;;;;37.30;26.03;;;5.70;99.90;;;;;;6191233;28;20208;-79
2021/01/21 14:14:19;;;;;;;40.43;25.90;;;5.50;99.90;;;;;;6187538;28;20210;-79
2021/01/21 14:17:22;;;;;;;45.13;27.63;;;5.30;99.90;;;;;;6216068;28;20287;-79
2021/01/21 14:20:24;;;;;;;45.50;27.13;;;5.10;99.90;;;;;;6216988;28;20288;-79
2021/01/21 14:23:26;;;;;;;46.67;28.73;;;5.00;99.90;;;;;;6215805;28;20233;-79
2021/01/21 14:26:28;;;;;;;41.87;26.23;;;4.80;99.90;;;;;;6233495;28;20230;-79
2021/01/21 14:29:31;;;;;;;45.40;27.57;;;4.60;99.90;;;;;;6216513;28;20204;-79
2021/01/21 14:32:33;;;;;;;44.87;27.70;;;4.40;99.90;;;;;;6201917;28;20580;-79
2021/01/21 14:35:36;;;;;;;39.60;26.73;;;4.30;99.90;;;;;;6194078;28;20223;-79
2021/01/21 14:38:39;;;;;;;42.37;25.30;;;4.20;99.90;;;;;;6176826;28;20207;-79
2021/01/21 14:41:41;;;;;;;41.57;25.37;;;4.10;99.90;;;;;;6162953;28;20204;-79
2021/01/21 14:44:43;;;;;;;38.10;24.97;;;4.00;99.90;;;;;;6162403;28;20205;-78
2021/01/21 14:47:45;;;;;;;37.53;24.80;;;3.80;99.90;;;;;;6194010;28;20234;-79
2021/01/21 14:50:47;;;;;;;37.70;24.37;;;3.70;99.90;;;;;;6210762;28;20202;-79
2021/01/21 14:53:50;;;;;;;36.50;23.90;;;3.50;99.90;;;;;;6194881;28;20218;-79
2021/01/21 14:56:52;;;;;;;38.97;24.13;;;3.30;99.90;;;;;;6202305;28;20707;-79
2021/01/21 14:59:54;;;;;;;36.93;22.33;;;3.10;99.90;;;;;;6196564;28;20205;-79
2021/01/21 15:02:56;;;;;;;33.77;21.37;;;2.90;99.90;;;;;;6196104;28;20212;-78
2021/01/21 15:05:58;;;;;;;33.57;22.23;;;2.80;99.90;;;;;;6196194;28;20694;-78
2021/01/21 15:09:01;;;;;;;35.17;21.97;;;2.70;99.90;;;;;;6195997;28;20201;-78
2021/01/21 15:12:03;;;;;;;32.30;19.87;;;2.60;99.90;;;;;;6180201;28;20301;-78
2021/01/21 15:15:09;;;;;;;29.90;18.63;;;2.50;99.90;;;;;;6196085;28;20264;-78
2021/01/21 15:18:11;;;;;;;33.10;18.80;;;2.50;99.90;;;;;;6179906;28;20255;-78
2021/01/21 15:21:14;;;;;;;33.87;21.10;;;2.50;99.90;;;;;;6166912;28;20221;-78
2021/01/21 15:24:16;;;;;;;32.27;20.63;;;2.40;99.90;;;;;;6188674;28;20660;-78
2021/01/21 15:27:19;;;;;;;26.83;17.67;;;2.30;99.90;;;;;;6187863;28;20255;-78
2021/01/21 15:30:22;;;;;;;28.17;18.43;;;2.10;99.90;;;;;;6186899;28;20579;-78
2021/01/21 15:33:24;;;;;;;33.10;19.80;;;2.00;99.90;;;;;;6197191;28;20201;-78
2021/01/21 15:36:28;;;;;;;38.33;20.53;;;1.90;99.90;;;;;;6178715;28;20205;-78
2021/01/21 15:39:30;;;;;;;34.37;21.10;;;1.80;99.90;;;;;;6177338;28;20205;-78
2021/01/21 15:42:33;;;;;;;33.57;20.27;;;1.50;99.90;;;;;;6179266;28;20220;-77
2021/01/21 15:45:36;;;;;;;32.40;18.53;;;1.40;99.90;;;;;;6177879;28;20205;-78
2021/01/21 15:48:39;;;;;;;30.07;18.50;;;1.30;99.90;;;;;;6184680;28;20391;-78
2021/01/21 15:51:42;;;;;;;30.33;19.47;;;1.30;99.90;;;;;;6186955;28;20234;-78